Raleigh, North Dakota
Current Conditions -  °F | °C
As of 10:15 PM on Saturday 20 Dec 2014 (Local Time) from KY19 Reporting Station
Clear Clear  
Wind Chill: -7°   Ceiling: Unl
Heat Index: -3°   Visibility: 10mi
Dew Point: -4°   Wind: 6mph
Humidity: 93%   Direction: 220°SW
Pressure: 29.78"   Gusts: NA
Location:  46.36°N, 101.31°W
Report Text: KY19 210515Z AUTO 22005KT 10SM CLR M03/M04 A2978 RMK AO2
Loading
Personal Weather Stations






























Interactive Weather Map New forecast layout! Learn more

10-Day Weather Forecast

Advertisements
Track Severe Weather on mobile